Valley Springs, California
Current Conditions -  °F | °C
As of 6:55 PM on Monday 20 Oct 2014 (Local Time) from KO22 Reporting Station
Broken Clouds Broken Clouds  
Wind Chill: 57°   Ceiling: 5000
Heat Index: 57°   Visibility: 10mi
Dew Point: 48°   Wind: 3mph
Humidity: 72%   Direction: 310°NW
Pressure: 29.99"   Gusts: NA
Location:  38.19°N, 120.83°W
Report Text: KO22 210155Z AUTO 31003KT 10SM FEW026 SCT046 BKN050 14/09 A2999 RMK AO1
Loading
Personal Weather Stations






























Interactive Weather Map
Tropical Storm Tracking
New forecast layout! Learn more

10-Day Weather Forecast

Advertisements
Track Severe Weather on mobile